• Join FlightAware (Why Join?)
  • Login
  • US Flag 
10:07AM EDT


 

Airport Tracker/Info


-or-


 

Live Flight TrackerFlight Track Log ✈ SKW5631 ✈ 19-Jun-2013 ✈ KSFO - KBUR

Flight Track Log - Related Links

Times and Time Zones

All times are in EDT time to prevent confusion due to time zone crossing. See the SKW5631 flight status page for this flight to view local times or setup timezone preferences in your user account.

Time Position Orientation Groundspeed Altitude Reporting Facility
EDT Latitude Longitude Course Direction KTS MPH feet Rate Location/Type
10:10PM 37.2464 -121.9119 135° Southeast  Level Estimated
10:11PM 37.1530 -121.7968 136° Southeast  Level Estimated
10:12PM 37.0594 -121.6819 136° Southeast  Level Estimated
10:13PM 36.9658 -121.5674 136° Southeast  Level Estimated
10:14PM 36.8720 -121.4531 136° Southeast  Level Estimated
10:15PM 36.7781 -121.3391 136° Southeast  Level Estimated
10:16PM 36.6841 -121.2254 136° Southeast  Level Estimated
10:17PM 36.5900 -121.1120 136° Southeast  Level Estimated
10:18PM 36.4958 -120.9988 136° Southeast  Level Estimated
10:19PM 36.4015 -120.8859 136° Southeast  Level Estimated
10:20PM 36.3071 -120.7733 136° Southeast  Level Estimated
10:21PM 36.2125 -120.6610 136° Southeast  Level Estimated
10:22PM 36.1179 -120.5489 136° Southeast  Level Estimated
10:23PM 36.0232 -120.4371 136° Southeast  Level Estimated
10:24PM 35.9283 -120.3256 136° Southeast  Level Estimated
10:25PM 35.8334 -120.2143 136° Southeast  Level Estimated
10:26PM 35.7383 -120.1033 137° Southeast  Level Estimated
10:27PM 35.6432 -119.9926 137° Southeast  Level Estimated
10:28PM 35.5479 -119.8821 137° Southeast  Level Estimated
10:29PM 35.4526 -119.7719 137° Southeast  Level Estimated
10:30PM 35.3571 -119.6620 137° Southeast  Level Estimated
10:31PM 35.2616 -119.5523 137° Southeast  Level Estimated
10:32PM 35.1659 -119.4429 137° Southeast  Level Estimated
10:33PM 35.0702 -119.3337 137° Southeast  Level Estimated
10:34PM 34.9744 -119.2248 137° Southeast  Level Estimated
10:35PM 34.8784 -119.1161 137° Southeast  Level Estimated
10:36PM 34.7824 -119.0077 137° Southeast  Level Estimated
10:37PM 34.6863 -118.8996 137° Southeast  Level Estimated
10:38PM 34.5900 -118.7917 137° Southeast  Level Estimated
10:39PM 34.4937 -118.6840 137° Southeast  Level Estimated
10:40PM 34.3973 -118.5766 137° Southeast  Level Estimated
10:41PM 34.3008 -118.4695 137° Southeast  Level Estimated
10:42PM 34.2042 -118.3626 138° Southeast  Level Estimated
10:43PM 34.2007 -118.3587 138° Southeast  Level Estimated
10:44PM 34.2007 -118.3587 140° Southeast  Level Estimated
10:45PM 34.2007 -118.3587 140° Southeast  Level Estimated
10:46PM 34.2007 -118.3587 140° Southeast  Level Estimated
10:47PM 34.2007 -118.3587 140° Southeast  Level Estimated
10:48PM 34.2007 -118.3587 140° Southeast  Level Estimated
10:49PM 34.2007 -118.3587 140° Southeast  Level Estimated
10:50PM 34.2007 -118.3587 140° Southeast  Level Estimated
10:51PM 34.2007 -118.3587 140° Southeast  Level Estimated
10:52PM 34.2007 -118.3587 140° Southeast  Level Estimated
10:53PM 34.2007 -118.3587 140° Southeast  Level Estimated
10:54PM 34.2007 -118.3587 140° Southeast  Level Estimated
10:55PM 34.2007 -118.3587 140° Southeast  Level Estimated
10:56PM 34.2007 -118.3587 140° Southeast  Level Estimated